Time;durP1;ratioP1;P1;durP2;ratioP2;P2;SDS_P1;SDS_P2;PMS_P1;PMS_P2;Temp;Humidity;BMP_temperature;BMP_pressure;BME280_temperature;BME280_humidity;BME280_pressure;Samples;Min_cycle;Max_cycle;Signal;HPM_P1;HPM_P2
2023/12/31 00:00:42;;;;;;;115.15;74.07;;;5.40;99.90;;;;;;4937070;29;20028;-75
2023/12/31 00:03:08;;;;;;;102.30;66.80;;;5.30;99.90;;;;;;4936668;29;20027;-76
2023/12/31 00:05:35;;;;;;;102.22;72.38;;;5.30;99.90;;;;;;4935950;29;20130;-76
2023/12/31 00:08:01;;;;;;;119.35;80.88;;;5.20;99.90;;;;;;4936665;29;20150;-75
2023/12/31 00:10:27;;;;;;;115.22;75.88;;;5.10;99.90;;;;;;4916052;29;20107;-75
2023/12/31 00:12:53;;;;;;;113.70;74.13;;;5.10;99.90;;;;;;4917533;29;20028;-76
2023/12/31 00:15:18;;;;;;;101.80;68.38;;;5.00;99.90;;;;;;4917394;29;20035;-75
2023/12/31 00:17:44;;;;;;;107.78;67.60;;;5.00;99.90;;;;;;4917647;29;20028;-77
2023/12/31 00:20:10;;;;;;;96.60;68.63;;;5.00;99.90;;;;;;4917392;29;20091;-77
2023/12/31 00:22:36;;;;;;;102.35;69.30;;;4.80;99.90;;;;;;4916314;29;20035;-75
2023/12/31 00:25:03;;;;;;;123.65;80.03;;;4.70;99.90;;;;;;4916539;29;20035;-73
2023/12/31 00:27:29;;;;;;;120.30;80.75;;;4.80;99.90;;;;;;4917288;29;20032;-73
2023/12/31 00:29:55;;;;;;;115.47;77.70;;;4.70;99.90;;;;;;4916088;29;20397;-74
2023/12/31 00:32:21;;;;;;;96.05;67.50;;;4.80;99.90;;;;;;4916005;29;20046;-73
2023/12/31 00:34:46;;;;;;;95.00;67.55;;;4.70;99.90;;;;;;4917162;29;20043;-73
2023/12/31 00:37:12;;;;;;;104.38;71.85;;;4.70;99.90;;;;;;4915581;29;20047;-74
2023/12/31 00:39:38;;;;;;;96.32;65.68;;;4.80;99.90;;;;;;4914954;29;20052;-74
2023/12/31 00:42:05;;;;;;;92.75;65.18;;;4.70;99.90;;;;;;4916354;29;20028;-74
2023/12/31 00:44:31;;;;;;;97.00;63.22;;;4.70;99.90;;;;;;4916002;29;20054;-74
2023/12/31 00:46:57;;;;;;;100.63;67.88;;;4.70;99.90;;;;;;4920660;29;20484;-75
2023/12/31 00:49:23;;;;;;;87.72;58.78;;;4.70;99.90;;;;;;4915668;29;20036;-76
2023/12/31 00:51:49;;;;;;;90.25;62.90;;;4.70;99.90;;;;;;4916800;29;20027;-75
2023/12/31 00:54:15;;;;;;;102.88;71.32;;;4.70;99.90;;;;;;4915860;29;20036;-73
2023/12/31 00:56:41;;;;;;;167.93;98.50;;;4.70;99.90;;;;;;4916851;29;20103;-74
2023/12/31 00:59:08;;;;;;;106.22;66.75;;;4.70;99.90;;;;;;4925494;29;20041;-74
2023/12/31 01:01:34;;;;;;;105.05;65.18;;;4.70;99.90;;;;;;4915347;29;20402;-75
2023/12/31 01:04:00;;;;;;;113.63;69.57;;;4.70;99.90;;;;;;4916404;29;20039;-73
2023/12/31 01:06:26;;;;;;;67.00;49.97;;;4.70;99.90;;;;;;4914756;29;20051;-74
2023/12/31 01:08:54;;;;;;;56.05;41.95;;;4.70;99.90;;;;;;4916153;29;20028;-75
2023/12/31 01:11:20;;;;;;;55.30;41.20;;;4.70;99.90;;;;;;4922228;29;20067;-76
2023/12/31 01:13:46;;;;;;;76.43;52.72;;;4.70;99.90;;;;;;4921405;29;20036;-73
2023/12/31 01:16:13;;;;;;;74.97;55.70;;;4.80;99.90;;;;;;4921198;29;20111;-74
2023/12/31 01:18:39;;;;;;;96.57;63.53;;;4.70;99.90;;;;;;4916311;29;20055;-76
2023/12/31 01:21:05;;;;;;;99.65;64.95;;;4.70;99.90;;;;;;4927487;29;20027;-73
2023/12/31 01:23:31;;;;;;;74.32;50.63;;;4.70;99.90;;;;;;4917810;29;20444;-77
2023/12/31 01:25:57;;;;;;;82.78;54.78;;;4.60;99.90;;;;;;4918023;29;20043;-75
2023/12/31 01:28:23;;;;;;;84.45;52.97;;;4.60;99.90;;;;;;4917480;29;20043;-73
2023/12/31 01:30:49;;;;;;;77.18;50.58;;;4.50;99.90;;;;;;4935058;29;20036;-76
2023/12/31 01:33:14;;;;;;;70.75;48.80;;;4.50;99.90;;;;;;4934723;29;20023;-76
2023/12/31 01:35:40;;;;;;;93.45;59.83;;;4.50;99.90;;;;;;4934827;29;20090;-78
2023/12/31 01:38:06;;;;;;;68.18;48.13;;;4.50;99.90;;;;;;4921012;29;20042;-75
2023/12/31 01:40:32;;;;;;;70.72;51.38;;;4.40;99.90;;;;;;4923264;29;20076;-73
2023/12/31 01:42:58;;;;;;;76.18;53.17;;;4.40;99.90;;;;;;4939946;29;20028;-75
2023/12/31 01:45:24;;;;;;;86.68;54.08;;;4.30;99.90;;;;;;4934502;29;20043;-78
2023/12/31 01:47:51;;;;;;;92.28;55.92;;;4.30;99.90;;;;;;4935006;29;20578;-77
2023/12/31 01:50:19;;;;;;;130.95;68.65;;;4.20;99.90;;;;;;4918306;29;20471;-78
2023/12/31 01:52:45;;;;;;;251.23;122.85;;;4.20;99.90;;;;;;4934832;29;20114;-72
2023/12/31 01:55:13;;;;;;;428.80;231.48;;;4.20;99.90;;;;;;4934959;29;20035;-73
2023/12/31 01:57:40;;;;;;;429.10;226.43;;;4.20;99.90;;;;;;4917799;29;20032;-75
2023/12/31 02:00:07;;;;;;;129.07;74.88;;;4.20;99.90;;;;;;4918661;29;20035;-75
2023/12/31 02:02:42;;;;;;;64.13;44.08;;;4.20;99.90;;;;;;4903156;29;20032;-77
2023/12/31 02:05:08;;;;;;;81.22;52.47;;;4.20;99.90;;;;;;4923881;29;20118;-73
2023/12/31 02:07:34;;;;;;;113.57;70.63;;;4.20;99.90;;;;;;4928347;29;20687;-72
2023/12/31 02:10:00;;;;;;;93.10;57.78;;;4.20;99.90;;;;;;4916051;29;20040;-73
2023/12/31 02:12:26;;;;;;;78.15;52.42;;;4.10;99.90;;;;;;4932693;29;20038;-74
2023/12/31 02:14:52;;;;;;;75.68;50.92;;;4.10;99.90;;;;;;4934953;29;20068;-78
2023/12/31 02:17:18;;;;;;;74.90;51.28;;;4.00;99.90;;;;;;4919547;29;20031;-73
2023/12/31 02:19:44;;;;;;;73.70;50.17;;;4.00;99.90;;;;;;4915051;29;20026;-74
2023/12/31 02:22:10;;;;;;;72.38;49.08;;;4.00;99.90;;;;;;4918047;29;20481;-74
2023/12/31 02:24:48;;;;;;;71.53;51.35;;;3.90;99.90;;;;;;4919433;29;20035;-76
2023/12/31 02:27:15;;;;;;;72.15;52.53;;;4.00;99.90;;;;;;4917276;28;20036;-77
2023/12/31 02:29:41;;;;;;;95.40;64.05;;;4.00;99.90;;;;;;4924352;29;20111;-75
2023/12/31 02:32:07;;;;;;;76.88;53.42;;;4.00;99.90;;;;;;4917714;29;20437;-73
2023/12/31 02:34:33;;;;;;;58.83;45.13;;;4.00;99.90;;;;;;4925428;29;20048;-73
2023/12/31 02:36:59;;;;;;;64.78;46.20;;;4.00;99.90;;;;;;4925235;29;20075;-73
2023/12/31 02:39:25;;;;;;;66.50;45.33;;;4.00;99.90;;;;;;4925084;29;20123;-73
2023/12/31 02:41:51;;;;;;;66.07;45.50;;;3.90;99.90;;;;;;4919710;29;20043;-75
2023/12/31 02:44:18;;;;;;;54.53;41.72;;;3.90;99.90;;;;;;4923771;29;20020;-74
2023/12/31 02:46:44;;;;;;;68.25;45.10;;;3.80;99.90;;;;;;4907460;29;20040;-74
2023/12/31 02:49:11;;;;;;;52.88;39.30;;;3.70;99.90;;;;;;4923013;29;20033;-76
2023/12/31 02:51:40;;;;;;;61.05;43.55;;;3.70;99.90;;;;;;4919709;29;20040;-78
2023/12/31 02:54:06;;;;;;;53.58;38.78;;;3.70;99.90;;;;;;4904882;29;20072;-75
2023/12/31 02:56:39;;;;;;;60.20;41.22;;;3.70;99.90;;;;;;4923712;28;20032;-74
2023/12/31 02:59:05;;;;;;;57.20;41.22;;;3.70;99.90;;;;;;4920007;29;20433;-74
2023/12/31 03:01:32;;;;;;;67.00;50.80;;;3.70;99.90;;;;;;4920764;29;20020;-73
2023/12/31 03:03:58;;;;;;;61.63;46.40;;;3.70;99.90;;;;;;4917369;29;20044;-75
2023/12/31 03:06:28;;;;;;;56.10;40.63;;;3.80;99.90;;;;;;4918077;29;20052;-74
2023/12/31 03:08:58;;;;;;;55.88;40.28;;;3.80;99.90;;;;;;4921194;29;20028;-73
2023/12/31 03:11:25;;;;;;;55.22;40.95;;;3.80;99.90;;;;;;4900366;29;20056;-73
2023/12/31 03:13:51;;;;;;;54.08;38.90;;;3.80;99.90;;;;;;4902291;29;20066;-74
2023/12/31 03:16:17;;;;;;;58.95;41.75;;;3.80;99.90;;;;;;4905689;29;20056;-75
2023/12/31 03:18:43;;;;;;;54.47;39.42;;;3.80;99.90;;;;;;4902424;29;20025;-75
2023/12/31 03:21:16;;;;;;;48.90;37.00;;;3.80;99.90;;;;;;4917829;29;20029;-76
2023/12/31 03:23:42;;;;;;;52.03;37.08;;;3.80;99.90;;;;;;4908726;29;20052;-77
2023/12/31 03:26:08;;;;;;;55.72;39.60;;;3.70;99.90;;;;;;4915560;29;20051;-73
2023/12/31 03:28:34;;;;;;;50.10;37.92;;;3.70;99.90;;;;;;4899161;29;20050;-73
2023/12/31 03:30:59;;;;;;;62.08;45.38;;;3.70;99.90;;;;;;4901412;29;20035;-76
2023/12/31 03:33:26;;;;;;;69.80;48.35;;;3.60;99.90;;;;;;4912660;29;20039;-74
2023/12/31 03:35:52;;;;;;;63.40;43.97;;;3.60;99.90;;;;;;4902468;29;20035;-75
2023/12/31 03:38:18;;;;;;;71.10;48.15;;;3.60;99.90;;;;;;4901324;29;20028;-73
2023/12/31 03:40:44;;;;;;;71.88;52.00;;;3.60;99.90;;;;;;4898111;29;20040;-77
2023/12/31 03:43:10;;;;;;;81.50;53.97;;;3.60;99.90;;;;;;4901786;29;20107;-73
2023/12/31 03:45:36;;;;;;;97.90;62.17;;;3.60;99.90;;;;;;4918253;29;20044;-72
2023/12/31 03:48:02;;;;;;;84.78;51.70;;;3.50;99.90;;;;;;4900395;29;20024;-78
2023/12/31 03:50:28;;;;;;;161.82;45.70;;;3.50;99.90;;;;;;4899351;29;20028;-75
2023/12/31 03:52:55;;;;;;;243.43;49.45;;;3.50;99.90;;;;;;4912141;29;20085;-74
2023/12/31 03:55:21;;;;;;;160.55;48.75;;;3.40;99.90;;;;;;4919317;29;20036;-76
2023/12/31 03:57:46;;;;;;;172.05;52.97;;;3.30;99.90;;;;;;4900318;29;20587;-74
2023/12/31 04:00:13;;;;;;;113.70;41.88;;;3.30;99.90;;;;;;4901440;29;20039;-75
2023/12/31 04:02:38;;;;;;;90.10;41.13;;;3.30;99.90;;;;;;4915631;29;20033;-72
2023/12/31 04:05:05;;;;;;;209.15;53.05;;;3.20;99.90;;;;;;4898800;29;20031;-76
2023/12/31 04:07:32;;;;;;;68.72;41.35;;;3.00;99.90;;;;;;4915849;29;20119;-74
2023/12/31 04:09:58;;;;;;;77.40;38.80;;;3.00;99.90;;;;;;4906838;29;20131;-73
2023/12/31 04:12:23;;;;;;;107.28;43.95;;;3.10;99.90;;;;;;4919076;29;20518;-73
2023/12/31 04:14:49;;;;;;;163.60;44.40;;;3.10;99.90;;;;;;4902774;29;20036;-76
2023/12/31 04:17:15;;;;;;;82.30;38.60;;;3.20;99.90;;;;;;4919440;29;20040;-76
2023/12/31 04:19:41;;;;;;;69.18;41.10;;;3.10;99.90;;;;;;4924694;29;20027;-75
2023/12/31 04:22:07;;;;;;;91.53;40.20;;;3.20;99.90;;;;;;4920327;29;20082;-76
2023/12/31 04:24:33;;;;;;;60.60;39.78;;;3.10;99.90;;;;;;4920024;29;20106;-75
2023/12/31 04:26:59;;;;;;;83.43;40.60;;;3.10;99.90;;;;;;4899772;29;20044;-74
2023/12/31 04:29:25;;;;;;;72.60;42.75;;;3.10;99.90;;;;;;4918663;29;20023;-77
2023/12/31 04:31:51;;;;;;;54.50;38.00;;;3.10;99.90;;;;;;4921333;29;20028;-75
2023/12/31 04:34:17;;;;;;;66.75;40.85;;;3.10;99.90;;;;;;4920696;29;20019;-75
2023/12/31 04:36:46;;;;;;;58.10;39.97;;;3.10;99.90;;;;;;4922248;29;20502;-75
2023/12/31 04:39:13;;;;;;;59.90;39.10;;;3.00;99.90;;;;;;4901453;29;20040;-77
2023/12/31 04:41:39;;;;;;;56.88;40.75;;;3.00;99.90;;;;;;4902933;29;20547;-78
2023/12/31 04:44:04;;;;;;;56.55;39.60;;;3.00;99.90;;;;;;4925125;29;20083;-76
2023/12/31 04:46:30;;;;;;;55.67;37.45;;;3.00;99.90;;;;;;4922794;29;20052;-76
2023/12/31 04:48:56;;;;;;;51.30;36.33;;;3.10;99.90;;;;;;4907820;29;20495;-76
2023/12/31 04:51:27;;;;;;;50.15;35.72;;;3.10;99.90;;;;;;4902105;29;20036;-74
2023/12/31 04:53:54;;;;;;;52.38;37.10;;;3.00;99.90;;;;;;4922510;29;20023;-74
2023/12/31 04:56:24;;;;;;;46.78;36.85;;;3.00;99.90;;;;;;4918311;29;20028;-75
2023/12/31 04:58:52;;;;;;;53.05;36.30;;;3.00;99.90;;;;;;4918907;29;20031;-76
2023/12/31 05:01:19;;;;;;;48.53;35.70;;;3.00;99.90;;;;;;4916478;29;20032;-74
2023/12/31 05:03:46;;;;;;;54.30;38.53;;;3.00;99.90;;;;;;4915572;29;20025;-74
2023/12/31 05:06:13;;;;;;;56.13;40.92;;;2.90;99.90;;;;;;4918630;29;20067;-75
2023/12/31 05:08:44;;;;;;;61.45;45.90;;;3.00;99.90;;;;;;4924202;29;20031;-79
2023/12/31 05:11:11;;;;;;;61.20;46.10;;;3.00;99.90;;;;;;4917133;29;20074;-74
2023/12/31 05:13:41;;;;;;;72.60;52.30;;;2.90;99.90;;;;;;4916776;29;20099;-74
2023/12/31 05:16:09;;;;;;;62.03;45.00;;;2.90;99.90;;;;;;4916082;29;20032;-75
2023/12/31 05:18:34;;;;;;;67.45;45.58;;;2.90;99.90;;;;;;4918246;29;20020;-76
2023/12/31 05:21:01;;;;;;;61.85;45.20;;;2.90;99.90;;;;;;4918088;29;20429;-77
2023/12/31 05:23:27;;;;;;;66.20;47.50;;;2.80;99.90;;;;;;4917306;29;20472;-77
2023/12/31 05:25:53;;;;;;;69.78;49.88;;;2.80;99.90;;;;;;4915347;29;20381;-76
2023/12/31 05:28:19;;;;;;;68.70;47.60;;;2.90;99.90;;;;;;4918784;29;20031;-76
2023/12/31 05:30:45;;;;;;;80.15;54.78;;;2.90;99.90;;;;;;4921350;29;20032;-77
2023/12/31 05:33:11;;;;;;;83.43;59.00;;;2.90;99.90;;;;;;4918467;29;20472;-77
2023/12/31 05:35:37;;;;;;;90.70;59.72;;;2.90;99.90;;;;;;4917016;29;20020;-75
2023/12/31 05:38:03;;;;;;;92.93;59.63;;;2.90;99.90;;;;;;4918649;29;20432;-74
2023/12/31 05:40:29;;;;;;;88.45;59.75;;;2.90;99.90;;;;;;4917871;29;20487;-76
2023/12/31 05:42:55;;;;;;;80.35;56.65;;;2.90;99.90;;;;;;4916909;29;20087;-77
2023/12/31 05:45:21;;;;;;;79.45;55.10;;;2.90;99.90;;;;;;4917763;29;20028;-74
2023/12/31 05:47:47;;;;;;;94.90;64.28;;;2.90;99.90;;;;;;4914997;29;20197;-74
2023/12/31 05:50:16;;;;;;;105.95;62.00;;;2.70;99.90;;;;;;4914077;29;20468;-76
2023/12/31 05:52:42;;;;;;;148.77;91.88;;;2.70;99.90;;;;;;4917640;29;20043;-76
2023/12/31 05:55:09;;;;;;;118.10;72.68;;;2.60;99.90;;;;;;4924744;29;20027;-77
2023/12/31 05:57:35;;;;;;;123.32;84.85;;;2.40;99.90;;;;;;4917070;29;20569;-77
2023/12/31 06:00:05;;;;;;;80.45;55.05;;;2.30;99.90;;;;;;4916659;29;20158;-76
2023/12/31 06:02:38;;;;;;;70.05;50.28;;;2.40;99.90;;;;;;4918030;29;20032;-77
2023/12/31 06:05:04;;;;;;;70.35;50.53;;;2.40;99.90;;;;;;4921280;29;20032;-74
2023/12/31 06:07:30;;;;;;;62.03;47.53;;;2.40;99.90;;;;;;4922917;29;20032;-75
2023/12/31 06:09:56;;;;;;;55.83;39.85;;;2.40;99.90;;;;;;4916092;29;20174;-75
2023/12/31 06:12:22;;;;;;;57.15;40.58;;;2.50;99.90;;;;;;4918352;29;20082;-75
2023/12/31 06:14:48;;;;;;;60.33;42.85;;;2.50;99.90;;;;;;4917005;29;20056;-74
2023/12/31 06:17:14;;;;;;;53.15;39.13;;;2.30;99.90;;;;;;4917190;29;20429;-77
2023/12/31 06:19:40;;;;;;;49.97;36.63;;;2.30;99.90;;;;;;4918441;29;20028;-76
2023/12/31 06:22:06;;;;;;;48.67;37.20;;;2.40;99.90;;;;;;4915693;29;20499;-77
2023/12/31 06:24:32;;;;;;;58.00;42.00;;;2.30;99.90;;;;;;4916044;29;20115;-75
2023/12/31 06:26:58;;;;;;;50.25;38.38;;;2.30;99.90;;;;;;4913584;29;20460;-76
2023/12/31 06:29:24;;;;;;;70.50;48.97;;;2.40;99.90;;;;;;4916621;29;20024;-75
2023/12/31 06:31:50;;;;;;;51.55;38.58;;;2.30;99.90;;;;;;4916112;29;20562;-77
2023/12/31 06:34:16;;;;;;;67.07;52.13;;;2.30;99.90;;;;;;4917192;29;20028;-77
2023/12/31 06:36:42;;;;;;;54.85;39.83;;;2.40;99.90;;;;;;4925501;29;20363;-76
2023/12/31 06:39:09;;;;;;;60.80;43.75;;;2.40;99.90;;;;;;4934670;29;20024;-75
2023/12/31 06:41:36;;;;;;;63.00;43.47;;;2.60;99.90;;;;;;4934019;29;20042;-75
2023/12/31 06:44:02;;;;;;;73.15;50.47;;;2.70;99.90;;;;;;4934417;29;20376;-75
2023/12/31 06:46:28;;;;;;;89.45;58.92;;;2.70;99.90;;;;;;4922240;29;20036;-78
2023/12/31 06:48:55;;;;;;;84.22;56.80;;;2.80;99.90;;;;;;4924413;29;20047;-72
2023/12/31 06:51:21;;;;;;;73.00;50.97;;;2.90;99.90;;;;;;4897702;29;20036;-76
2023/12/31 06:53:47;;;;;;;78.32;52.90;;;3.00;99.90;;;;;;4931312;29;20072;-73
2023/12/31 06:56:13;;;;;;;68.25;49.17;;;3.20;99.90;;;;;;4931197;29;20075;-75
2023/12/31 06:58:39;;;;;;;74.10;54.20;;;3.30;99.90;;;;;;4924442;29;20024;-74
2023/12/31 07:01:05;;;;;;;85.45;63.60;;;3.30;99.90;;;;;;4926918;29;20028;-74
2023/12/31 07:03:31;;;;;;;95.65;69.15;;;3.40;99.90;;;;;;4933985;29;20027;-76
2023/12/31 07:05:57;;;;;;;77.28;53.38;;;3.50;99.90;;;;;;4934216;29;20043;-73
2023/12/31 07:08:23;;;;;;;59.13;42.45;;;3.60;99.90;;;;;;4907560;29;20073;-74
2023/12/31 07:10:53;;;;;;;52.33;38.75;;;3.70;99.90;;;;;;4931954;29;20079;-76
2023/12/31 07:13:20;;;;;;;59.67;40.72;;;3.80;99.90;;;;;;4919349;29;20032;-75
2023/12/31 07:15:45;;;;;;;62.60;46.50;;;3.80;99.90;;;;;;4936536;29;20079;-76
2023/12/31 07:18:11;;;;;;;51.33;39.60;;;3.90;99.90;;;;;;4924741;29;20417;-74
2023/12/31 07:20:38;;;;;;;48.50;36.22;;;3.90;99.90;;;;;;4922944;29;20035;-77
2023/12/31 07:23:04;;;;;;;45.72;32.63;;;4.00;99.90;;;;;;4931195;29;20028;-74
2023/12/31 07:25:31;;;;;;;46.05;33.75;;;4.10;99.90;;;;;;4930220;29;20032;-74
2023/12/31 07:27:57;;;;;;;49.35;34.28;;;4.20;99.90;;;;;;4924954;29;20024;-76
2023/12/31 07:30:23;;;;;;;47.90;34.60;;;4.30;99.90;;;;;;4930457;29;20055;-75
2023/12/31 07:32:49;;;;;;;48.45;35.40;;;4.50;99.90;;;;;;4927163;29;20060;-76
2023/12/31 07:35:16;;;;;;;52.50;34.80;;;4.60;99.90;;;;;;4935940;29;20066;-75
2023/12/31 07:37:42;;;;;;;63.45;40.00;;;4.70;99.90;;;;;;4944195;28;20054;-77
2023/12/31 07:40:09;;;;;;;52.85;36.17;;;4.80;99.90;;;;;;4935938;29;20071;-76
2023/12/31 07:42:35;;;;;;;55.47;36.65;;;5.00;99.90;;;;;;4926491;29;20103;-76
2023/12/31 07:45:04;;;;;;;56.38;37.38;;;5.10;99.90;;;;;;4926577;29;20020;-74
2023/12/31 07:47:31;;;;;;;62.17;35.95;;;5.20;99.90;;;;;;4936186;29;20039;-77
2023/12/31 07:49:58;;;;;;;50.28;33.80;;;5.20;99.90;;;;;;4936851;29;20027;-73
2023/12/31 07:52:25;;;;;;;56.25;39.28;;;5.30;99.90;;;;;;4935999;29;20063;-74
2023/12/31 07:54:51;;;;;;;56.28;38.75;;;5.30;99.90;;;;;;4919399;29;20124;-75
2023/12/31 07:57:17;;;;;;;52.13;37.05;;;5.40;99.90;;;;;;4935508;29;20031;-74
2023/12/31 07:59:43;;;;;;;54.17;37.38;;;5.50;99.90;;;;;;4912579;29;20177;-73
2023/12/31 08:02:09;;;;;;;53.28;37.00;;;5.60;99.90;;;;;;4933407;29;20110;-74
2023/12/31 08:04:35;;;;;;;57.65;38.97;;;5.70;99.90;;;;;;4936614;29;20562;-75
2023/12/31 08:07:03;;;;;;;57.92;38.22;;;5.90;99.90;;;;;;4936727;29;20052;-76
2023/12/31 08:09:30;;;;;;;56.30;36.70;;;5.90;99.90;;;;;;4936059;29;20052;-74
2023/12/31 08:11:56;;;;;;;54.60;36.20;;;5.80;99.90;;;;;;4936628;29;20043;-74
2023/12/31 08:14:22;;;;;;;49.13;34.70;;;5.90;99.90;;;;;;4936411;29;20020;-74
2023/12/31 08:16:48;;;;;;;54.20;31.30;;;6.00;99.90;;;;;;4936426;29;20028;-75
2023/12/31 08:19:14;;;;;;;46.08;31.88;;;6.10;99.90;;;;;;4936743;29;20052;-75
2023/12/31 08:21:40;;;;;;;48.38;30.27;;;6.10;99.90;;;;;;4936682;29;20060;-75
2023/12/31 08:24:07;;;;;;;46.65;31.50;;;6.10;99.90;;;;;;4936331;29;20031;-73
2023/12/31 08:26:32;;;;;;;44.20;30.00;;;6.20;99.90;;;;;;4935195;29;20035;-74
2023/12/31 08:28:59;;;;;;;42.95;28.77;;;6.30;99.90;;;;;;4936579;29;20032;-74
2023/12/31 08:31:26;;;;;;;39.28;29.25;;;6.50;99.90;;;;;;4936115;29;20497;-74
2023/12/31 08:33:51;;;;;;;54.17;35.08;;;6.60;99.90;;;;;;4943099;28;20019;-75
2023/12/31 08:36:17;;;;;;;52.72;36.33;;;6.60;99.90;;;;;;4942674;29;20365;-74
2023/12/31 08:38:43;;;;;;;54.20;35.75;;;6.70;99.90;;;;;;4936544;29;20079;-74
2023/12/31 08:41:09;;;;;;;52.67;36.13;;;6.80;99.90;;;;;;4928305;29;20024;-74
2023/12/31 08:43:35;;;;;;;37.03;28.20;;;6.90;99.90;;;;;;4936189;29;20028;-75
2023/12/31 08:46:03;;;;;;;38.25;25.52;;;6.90;99.90;;;;;;4930940;29;20036;-76
2023/12/31 08:48:29;;;;;;;37.15;26.65;;;6.90;99.90;;;;;;4925242;29;20063;-75
2023/12/31 08:50:56;;;;;;;47.10;32.38;;;7.10;99.90;;;;;;4931327;29;20163;-76
2023/12/31 08:53:22;;;;;;;44.70;28.25;;;7.00;99.90;;;;;;4921962;29;20020;-75
2023/12/31 08:55:48;;;;;;;34.00;25.58;;;7.10;99.90;;;;;;4930490;29;20468;-76
2023/12/31 08:58:14;;;;;;;32.90;22.85;;;7.40;99.90;;;;;;4918228;29;20028;-75
2023/12/31 09:00:41;;;;;;;46.13;30.23;;;7.20;99.90;;;;;;4927498;29;20024;-74
2023/12/31 09:03:07;;;;;;;41.78;27.52;;;7.60;99.90;;;;;;4918495;29;20114;-75
2023/12/31 09:05:33;;;;;;;45.30;29.70;;;7.80;99.90;;;;;;4926137;29;20139;-74
2023/12/31 09:07:58;;;;;;;44.20;29.90;;;7.90;99.90;;;;;;4923375;29;20425;-77
2023/12/31 09:10:25;;;;;;;40.40;26.40;;;8.10;99.90;;;;;;4928428;28;20484;-74
2023/12/31 09:12:51;;;;;;;37.75;24.13;;;8.20;99.90;;;;;;4925275;29;20032;-74
2023/12/31 09:15:17;;;;;;;39.13;23.83;;;8.40;99.90;;;;;;4936079;29;20523;-74
2023/12/31 09:17:43;;;;;;;39.78;25.45;;;8.50;99.90;;;;;;4937533;29;20118;-73
2023/12/31 09:20:09;;;;;;;38.40;24.73;;;8.60;99.90;;;;;;4929643;29;20106;-73
2023/12/31 09:22:35;;;;;;;44.97;27.92;;;8.70;99.90;;;;;;4932693;29;20034;-73
2023/12/31 09:25:02;;;;;;;37.38;25.50;;;8.90;99.90;;;;;;4941898;29;20027;-74
2023/12/31 09:27:28;;;;;;;35.75;25.75;;;8.90;99.90;;;;;;4935792;28;20032;-74
2023/12/31 09:29:54;;;;;;;38.42;24.55;;;9.00;99.90;;;;;;4930758;29;20486;-73
2023/12/31 09:32:20;;;;;;;39.35;24.75;;;9.10;99.90;;;;;;4939522;29;20024;-76
2023/12/31 09:34:46;;;;;;;39.90;25.73;;;9.20;99.90;;;;;;4932965;29;20502;-74
2023/12/31 09:37:16;;;;;;;42.03;30.10;;;9.40;99.90;;;;;;4931607;29;20035;-74
2023/12/31 09:39:42;;;;;;;52.38;36.80;;;9.50;99.90;;;;;;4936728;29;20539;-75
2023/12/31 09:42:15;;;;;;;47.78;34.15;;;9.60;99.90;;;;;;4945907;29;20107;-74
2023/12/31 09:44:41;;;;;;;56.63;36.90;;;9.70;99.90;;;;;;4934471;29;20024;-73
2023/12/31 09:47:09;;;;;;;55.00;35.13;;;9.80;99.90;;;;;;4932159;29;20088;-75
2023/12/31 09:49:36;;;;;;;54.47;34.70;;;10.00;99.90;;;;;;4935553;29;20070;-76
2023/12/31 09:52:04;;;;;;;49.85;33.95;;;10.10;99.90;;;;;;4935859;29;20035;-74
2023/12/31 09:54:32;;;;;;;45.55;30.92;;;10.20;99.90;;;;;;4934967;29;20075;-75
2023/12/31 09:56:59;;;;;;;32.88;22.67;;;10.30;99.90;;;;;;4934679;29;20095;-76
2023/12/31 09:59:27;;;;;;;36.58;24.40;;;10.20;99.90;;;;;;4934832;29;20503;-78
2023/12/31 10:01:56;;;;;;;29.73;20.17;;;10.30;99.90;;;;;;4934356;29;20031;-74
2023/12/31 10:04:22;;;;;;;28.90;18.88;;;10.50;99.90;;;;;;4934871;29;20032;-74
2023/12/31 10:06:50;;;;;;;32.97;21.42;;;10.40;99.90;;;;;;4935586;29;20038;-74
2023/12/31 10:09:23;;;;;;;28.27;18.58;;;10.70;99.90;;;;;;4933074;29;20095;-76
2023/12/31 10:11:49;;;;;;;;;;;10.80;99.90;;;;;;4935258;29;20131;-72
2023/12/31 10:14:16;;;;;;;29.17;17.83;;;10.90;99.90;;;;;;4939887;29;20385;-75
2023/12/31 10:16:44;;;;;;;36.42;25.80;;;11.10;99.90;;;;;;4934421;29;20020;-75
2023/12/31 10:19:11;;;;;;;32.78;24.70;;;11.20;99.90;;;;;;4923532;29;20464;-74
2023/12/31 10:21:38;;;;;;;42.15;31.13;;;11.30;99.90;;;;;;4922154;29;20032;-75
2023/12/31 10:24:04;;;;;;;37.88;25.70;;;11.50;99.90;;;;;;4934385;29;20067;-76
2023/12/31 10:26:30;;;;;;;45.25;33.47;;;11.60;99.90;;;;;;4933110;29;20042;-75
2023/12/31 10:28:56;;;;;;;29.63;19.13;;;11.80;99.90;;;;;;4932601;29;20035;-76
2023/12/31 10:31:24;;;;;;;39.08;26.83;;;11.90;99.90;;;;;;4921414;29;20404;-74
2023/12/31 10:33:50;;;;;;;33.38;24.48;;;12.00;99.90;;;;;;4919818;29;20028;-76
2023/12/31 10:36:23;;;;;;;24.60;17.40;;;12.00;99.90;;;;;;4918099;29;20024;-74
2023/12/31 10:38:51;;;;;;;25.33;15.45;;;12.10;99.90;;;;;;4920997;29;20027;-75
2023/12/31 10:41:25;;;;;;;22.33;14.77;;;12.30;99.90;;;;;;4933598;29;20031;-75
2023/12/31 10:43:52;;;;;;;23.85;15.23;;;12.30;99.90;;;;;;4923134;29;20029;-78
2023/12/31 10:46:19;;;;;;;28.77;15.95;;;12.40;99.90;;;;;;4931180;29;20058;-74
2023/12/31 10:49:04;;;;;;;27.33;18.80;;;12.50;99.90;;;;;;4917951;29;20027;-75
2023/12/31 10:51:35;;;;;;;47.20;33.08;;;12.50;99.90;;;;;;4938216;29;20055;-76
2023/12/31 10:54:11;;;;;;;30.83;19.63;;;12.70;99.90;;;;;;4921571;29;20020;-76
2023/12/31 10:56:40;;;;;;;70.78;54.28;;;12.80;99.90;;;;;;4937796;29;20028;-75
2023/12/31 10:59:06;;;;;;;75.63;55.33;;;12.90;99.90;;;;;;4938112;29;20030;-76
2023/12/31 11:01:32;;;;;;;50.42;37.45;;;12.90;99.90;;;;;;4937776;29;20107;-75
2023/12/31 11:03:58;;;;;;;40.10;28.52;;;13.00;99.90;;;;;;4938384;29;20098;-76
2023/12/31 11:06:26;;;;;;;33.15;23.30;;;13.10;99.90;;;;;;4920382;29;20046;-77
2023/12/31 11:08:53;;;;;;;31.88;21.95;;;13.10;99.90;;;;;;4937983;29;20028;-77
2023/12/31 11:11:20;;;;;;;42.78;32.92;;;13.20;99.90;;;;;;4937433;29;20051;-77
2023/12/31 11:13:53;;;;;;;33.78;25.08;;;13.20;99.90;;;;;;4937774;29;20036;-74
2023/12/31 11:16:28;;;;;;;38.88;21.73;;;13.30;99.90;;;;;;4937572;29;20387;-74
2023/12/31 11:19:24;;;;;;;34.63;24.67;;;13.30;99.90;;;;;;4937695;29;20479;-76
2023/12/31 11:22:01;;;;;;;40.05;26.23;;;13.40;99.90;;;;;;4937550;29;20039;-76
2023/12/31 11:24:28;;;;;;;36.80;25.73;;;13.40;99.90;;;;;;4937813;29;20028;-78
2023/12/31 11:27:07;;;;;;;27.10;19.50;;;13.50;99.90;;;;;;4937572;29;20111;-78
2023/12/31 11:29:33;;;;;;;21.05;11.73;;;13.50;99.90;;;;;;4937415;29;20056;-76
2023/12/31 11:32:00;;;;;;;17.85;10.80;;;13.60;99.90;;;;;;4937645;29;20040;-77
2023/12/31 11:34:25;;;;;;;19.75;11.60;;;13.60;99.90;;;;;;4937316;29;20038;-77
2023/12/31 11:36:59;;;;;;;20.63;10.88;;;13.50;99.90;;;;;;4937433;29;20028;-75
2023/12/31 11:39:25;;;;;;;18.20;11.38;;;13.60;99.90;;;;;;4937126;29;20034;-75
2023/12/31 11:41:54;;;;;;;19.60;11.68;;;13.70;99.90;;;;;;4937231;29;20028;-74
2023/12/31 11:44:39;;;;;;;17.95;10.10;;;13.70;99.90;;;;;;4937504;29;20571;-77
2023/12/31 11:47:22;;;;;;;18.67;10.90;;;13.80;99.90;;;;;;4936730;29;20094;-77
2023/12/31 11:49:50;;;;;;;17.50;10.77;;;13.90;99.90;;;;;;4937143;29;20071;-76
2023/12/31 11:52:20;;;;;;;18.60;10.80;;;13.90;99.90;;;;;;4937100;29;20042;-77
2023/12/31 11:54:45;;;;;;;17.67;10.93;;;13.90;99.90;;;;;;4936989;29;20050;-76
2023/12/31 11:57:13;;;;;;;17.30;11.15;;;13.90;99.90;;;;;;4937072;29;20480;-77
2023/12/31 11:59:43;;;;;;;19.95;11.20;;;14.00;99.90;;;;;;4936223;29;20067;-77
2023/12/31 12:02:10;;;;;;;16.83;11.30;;;14.00;99.90;;;;;;4936535;29;20047;-76
2023/12/31 12:04:36;;;;;;;18.95;11.35;;;14.10;99.90;;;;;;4936809;29;20020;-76
2023/12/31 12:07:04;;;;;;;19.58;12.45;;;14.10;99.90;;;;;;4939399;29;20040;-75
2023/12/31 12:09:31;;;;;;;19.95;12.43;;;14.20;99.90;;;;;;4936896;29;20449;-76
2023/12/31 12:12:00;;;;;;;18.27;11.73;;;14.20;99.90;;;;;;4936610;29;20487;-77
2023/12/31 12:14:26;;;;;;;23.48;12.90;;;14.30;99.90;;;;;;4936601;29;20111;-74
2023/12/31 12:16:53;;;;;;;17.73;10.50;;;14.30;99.90;;;;;;4936404;29;20028;-77
2023/12/31 12:19:23;;;;;;;19.45;11.55;;;14.30;99.90;;;;;;4931192;29;20168;-74
2023/12/31 12:21:50;;;;;;;17.55;10.80;;;14.40;99.90;;;;;;4929802;29;20032;-76
2023/12/31 12:24:17;;;;;;;18.00;10.77;;;14.40;99.90;;;;;;4936797;29;20490;-76
2023/12/31 12:26:48;;;;;;;18.20;10.77;;;14.40;99.90;;;;;;4936249;29;20518;-75
2023/12/31 12:29:17;;;;;;;17.67;11.35;;;14.40;99.90;;;;;;4936388;29;20031;-74
2023/12/31 12:31:49;;;;;;;22.60;13.48;;;14.40;99.90;;;;;;4936155;29;20031;-74